sensor_id;sensor_type;location;lat;lon;timestamp;temperature;humidity
3156;DHT22;1588;50.892;7.082;2023-09-30T00:04:22;12.30;99.90
3156;DHT22;1588;50.892;7.082;2023-09-30T00:09:28;12.30;99.90
3156;DHT22;1588;50.892;7.082;2023-09-30T00:14:32;12.20;99.90
3156;DHT22;1588;50.892;7.082;2023-09-30T00:19:34;12.00;99.90
3156;DHT22;1588;50.892;7.082;2023-09-30T00:24:36;12.00;99.90
3156;DHT22;1588;50.892;7.082;2023-09-30T00:29:40;12.00;99.90
3156;DHT22;1588;50.892;7.082;2023-09-30T00:34:42;12.00;99.90
3156;DHT22;1588;50.892;7.082;2023-09-30T00:39:45;11.90;99.90
3156;DHT22;1588;50.892;7.082;2023-09-30T00:44:51;11.90;99.90
3156;DHT22;1588;50.892;7.082;2023-09-30T00:49:54;11.90;99.90
3156;DHT22;1588;50.892;7.082;2023-09-30T00:54:56;11.90;99.90
3156;DHT22;1588;50.892;7.082;2023-09-30T01:00:00;11.90;99.90
3156;DHT22;1588;50.892;7.082;2023-09-30T01:05:03;12.00;99.90
3156;DHT22;1588;50.892;7.082;2023-09-30T01:10:06;11.90;99.90
3156;DHT22;1588;50.892;7.082;2023-09-30T01:15:10;11.70;99.90
3156;DHT22;1588;50.892;7.082;2023-09-30T01:20:15;11.60;99.90
3156;DHT22;1588;50.892;7.082;2023-09-30T01:25:19;11.60;99.90
3156;DHT22;1588;50.892;7.082;2023-09-30T01:30:21;11.60;99.90
3156;DHT22;1588;50.892;7.082;2023-09-30T01:35:24;11.70;99.90
3156;DHT22;1588;50.892;7.082;2023-09-30T01:40:28;11.70;99.90
3156;DHT22;1588;50.892;7.082;2023-09-30T01:45:30;11.70;99.90
3156;DHT22;1588;50.892;7.082;2023-09-30T01:50:33;11.70;99.90
3156;DHT22;1588;50.892;7.082;2023-09-30T01:55:36;11.60;99.90
3156;DHT22;1588;50.892;7.082;2023-09-30T02:00:38;11.60;99.90
3156;DHT22;1588;50.892;7.082;2023-09-30T02:05:41;11.60;99.90
3156;DHT22;1588;50.892;7.082;2023-09-30T02:10:45;11.60;99.90
3156;DHT22;1588;50.892;7.082;2023-09-30T02:15:47;11.50;99.90
3156;DHT22;1588;50.892;7.082;2023-09-30T02:20:50;11.40;99.90
3156;DHT22;1588;50.892;7.082;2023-09-30T02:25:55;11.30;99.90
3156;DHT22;1588;50.892;7.082;2023-09-30T02:30:58;11.30;99.90
3156;DHT22;1588;50.892;7.082;2023-09-30T02:36:13;11.40;99.90
3156;DHT22;1588;50.892;7.082;2023-09-30T02:41:18;11.30;99.90
3156;DHT22;1588;50.892;7.082;2023-09-30T02:46:20;11.30;99.90
3156;DHT22;1588;50.892;7.082;2023-09-30T02:51:22;11.20;99.90
3156;DHT22;1588;50.892;7.082;2023-09-30T02:56:27;11.10;99.90
3156;DHT22;1588;50.892;7.082;2023-09-30T03:01:31;11.10;99.90
3156;DHT22;1588;50.892;7.082;2023-09-30T03:06:33;11.10;99.90
3156;DHT22;1588;50.892;7.082;2023-09-30T03:11:39;10.90;99.90
3156;DHT22;1588;50.892;7.082;2023-09-30T03:16:43;10.90;99.90
3156;DHT22;1588;50.892;7.082;2023-09-30T03:21:47;10.90;99.90
3156;DHT22;1588;50.892;7.082;2023-09-30T03:26:51;10.90;99.90
3156;DHT22;1588;50.892;7.082;2023-09-30T03:31:53;10.90;99.90
3156;DHT22;1588;50.892;7.082;2023-09-30T03:36:56;10.80;99.90
3156;DHT22;1588;50.892;7.082;2023-09-30T03:42:01;10.70;99.90
3156;DHT22;1588;50.892;7.082;2023-09-30T03:47:04;10.70;99.90
3156;DHT22;1588;50.892;7.082;2023-09-30T03:52:06;10.60;99.90
3156;DHT22;1588;50.892;7.082;2023-09-30T03:57:11;10.60;99.90
3156;DHT22;1588;50.892;7.082;2023-09-30T04:02:16;10.60;99.90
3156;DHT22;1588;50.892;7.082;2023-09-30T04:07:19;10.60;99.90
3156;DHT22;1588;50.892;7.082;2023-09-30T04:12:33;10.50;99.90
3156;DHT22;1588;50.892;7.082;2023-09-30T04:17:36;10.30;99.90
3156;DHT22;1588;50.892;7.082;2023-09-30T04:22:39;10.20;99.90
3156;DHT22;1588;50.892;7.082;2023-09-30T04:27:44;10.20;99.90
3156;DHT22;1588;50.892;7.082;2023-09-30T04:32:49;10.10;99.90
3156;DHT22;1588;50.892;7.082;2023-09-30T04:37:51;10.10;99.90
3156;DHT22;1588;50.892;7.082;2023-09-30T04:42:56;10.10;99.90
3156;DHT22;1588;50.892;7.082;2023-09-30T04:48:03;10.00;99.90
3156;DHT22;1588;50.892;7.082;2023-09-30T04:53:06;9.90;99.90
3156;DHT22;1588;50.892;7.082;2023-09-30T04:58:11;9.90;99.90
3156;DHT22;1588;50.892;7.082;2023-09-30T05:03:13;9.80;99.90
3156;DHT22;1588;50.892;7.082;2023-09-30T05:08:16;9.70;99.90
3156;DHT22;1588;50.892;7.082;2023-09-30T05:13:20;9.70;99.90
3156;DHT22;1588;50.892;7.082;2023-09-30T05:18:24;9.60;99.90
3156;DHT22;1588;50.892;7.082;2023-09-30T05:23:26;9.60;99.90
3156;DHT22;1588;50.892;7.082;2023-09-30T05:28:30;9.70;99.90
3156;DHT22;1588;50.892;7.082;2023-09-30T05:33:33;9.60;99.90
3156;DHT22;1588;50.892;7.082;2023-09-30T05:38:37;9.50;99.90
3156;DHT22;1588;50.892;7.082;2023-09-30T05:43:41;9.60;99.90
3156;DHT22;1588;50.892;7.082;2023-09-30T05:48:44;9.50;99.90
3156;DHT22;1588;50.892;7.082;2023-09-30T05:53:46;9.60;99.90
3156;DHT22;1588;50.892;7.082;2023-09-30T05:58:51;9.70;99.90
3156;DHT22;1588;50.892;7.082;2023-09-30T06:03:53;9.70;99.90
3156;DHT22;1588;50.892;7.082;2023-09-30T06:08:55;9.80;99.90
3156;DHT22;1588;50.892;7.082;2023-09-30T06:14:00;10.00;99.90
3156;DHT22;1588;50.892;7.082;2023-09-30T06:19:03;10.20;99.90
3156;DHT22;1588;50.892;7.082;2023-09-30T06:24:05;10.40;99.90
3156;DHT22;1588;50.892;7.082;2023-09-30T06:29:09;10.50;99.90
3156;DHT22;1588;50.892;7.082;2023-09-30T06:34:17;10.70;99.90
3156;DHT22;1588;50.892;7.082;2023-09-30T06:39:23;10.80;99.90
3156;DHT22;1588;50.892;7.082;2023-09-30T06:44:27;11.00;99.90
3156;DHT22;1588;50.892;7.082;2023-09-30T06:49:33;11.30;99.90
3156;DHT22;1588;50.892;7.082;2023-09-30T06:54:36;11.50;99.90
3156;DHT22;1588;50.892;7.082;2023-09-30T06:59:40;11.70;99.90
3156;DHT22;1588;50.892;7.082;2023-09-30T07:04:42;12.10;99.90
3156;DHT22;1588;50.892;7.082;2023-09-30T07:09:45;12.60;99.90
3156;DHT22;1588;50.892;7.082;2023-09-30T07:14:48;12.70;99.90
3156;DHT22;1588;50.892;7.082;2023-09-30T07:19:51;13.10;99.90
3156;DHT22;1588;50.892;7.082;2023-09-30T07:24:53;12.90;99.90
3156;DHT22;1588;50.892;7.082;2023-09-30T07:29:56;12.70;99.90
3156;DHT22;1588;50.892;7.082;2023-09-30T07:34:59;12.40;99.90
3156;DHT22;1588;50.892;7.082;2023-09-30T07:40:03;12.50;99.90
3156;DHT22;1588;50.892;7.082;2023-09-30T07:45:08;12.60;99.90
3156;DHT22;1588;50.892;7.082;2023-09-30T07:50:12;12.70;99.90
3156;DHT22;1588;50.892;7.082;2023-09-30T07:55:15;12.60;99.90
3156;DHT22;1588;50.892;7.082;2023-09-30T08:00:19;12.80;99.90
3156;DHT22;1588;50.892;7.082;2023-09-30T08:05:25;13.00;99.90
3156;DHT22;1588;50.892;7.082;2023-09-30T08:10:28;13.40;99.90
3156;DHT22;1588;50.892;7.082;2023-09-30T08:15:32;13.50;99.90
3156;DHT22;1588;50.892;7.082;2023-09-30T08:20:52;13.90;99.90
3156;DHT22;1588;50.892;7.082;2023-09-30T08:25:58;13.70;99.90
3156;DHT22;1588;50.892;7.082;2023-09-30T08:31:05;14.00;99.90
3156;DHT22;1588;50.892;7.082;2023-09-30T08:36:08;14.30;99.90
3156;DHT22;1588;50.892;7.082;2023-09-30T08:41:14;14.50;99.90
3156;DHT22;1588;50.892;7.082;2023-09-30T08:46:28;16.80;99.90
3156;DHT22;1588;50.892;7.082;2023-09-30T08:51:32;16.30;99.90
3156;DHT22;1588;50.892;7.082;2023-09-30T08:56:35;15.90;99.90
3156;DHT22;1588;50.892;7.082;2023-09-30T09:01:39;17.70;99.90
3156;DHT22;1588;50.892;7.082;2023-09-30T09:06:42;17.40;99.90
3156;DHT22;1588;50.892;7.082;2023-09-30T09:11:45;19.20;99.90
3156;DHT22;1588;50.892;7.082;2023-09-30T09:16:53;21.40;99.90
3156;DHT22;1588;50.892;7.082;2023-09-30T09:21:57;20.60;99.90
3156;DHT22;1588;50.892;7.082;2023-09-30T09:27:07;19.00;99.90
3156;DHT22;1588;50.892;7.082;2023-09-30T09:32:12;18.60;99.90
3156;DHT22;1588;50.892;7.082;2023-09-30T09:37:17;18.10;99.90
3156;DHT22;1588;50.892;7.082;2023-09-30T09:42:27;19.80;99.90
3156;DHT22;1588;50.892;7.082;2023-09-30T09:47:32;18.60;99.90
3156;DHT22;1588;50.892;7.082;2023-09-30T09:52:35;19.90;99.90
3156;DHT22;1588;50.892;7.082;2023-09-30T09:57:37;21.10;99.90
3156;DHT22;1588;50.892;7.082;2023-09-30T10:02:42;21.10;99.90
3156;DHT22;1588;50.892;7.082;2023-09-30T10:07:47;22.50;99.90
3156;DHT22;1588;50.892;7.082;2023-09-30T10:12:52;22.20;99.90
3156;DHT22;1588;50.892;7.082;2023-09-30T10:18:00;21.70;99.90
3156;DHT22;1588;50.892;7.082;2023-09-30T10:23:21;22.10;99.90
3156;DHT22;1588;50.892;7.082;2023-09-30T10:28:35;22.20;99.90
3156;DHT22;1588;50.892;7.082;2023-09-30T10:45:44;21.50;99.90
3156;DHT22;1588;50.892;7.082;2023-09-30T10:50:51;21.90;99.90
3156;DHT22;1588;50.892;7.082;2023-09-30T10:55:56;21.90;99.90
3156;DHT22;1588;50.892;7.082;2023-09-30T11:00:59;22.20;99.90
3156;DHT22;1588;50.892;7.082;2023-09-30T11:06:02;22.40;99.90
3156;DHT22;1588;50.892;7.082;2023-09-30T11:11:07;22.30;99.90
3156;DHT22;1588;50.892;7.082;2023-09-30T11:16:10;22.50;99.90
3156;DHT22;1588;50.892;7.082;2023-09-30T11:21:13;22.50;99.90
3156;DHT22;1588;50.892;7.082;2023-09-30T11:26:29;22.50;99.90
3156;DHT22;1588;50.892;7.082;2023-09-30T11:31:32;22.50;99.90
3156;DHT22;1588;50.892;7.082;2023-09-30T11:36:36;22.20;99.90
3156;DHT22;1588;50.892;7.082;2023-09-30T11:41:41;22.20;99.90
3156;DHT22;1588;50.892;7.082;2023-09-30T11:46:49;21.70;99.90
3156;DHT22;1588;50.892;7.082;2023-09-30T11:51:53;22.00;99.90
3156;DHT22;1588;50.892;7.082;2023-09-30T11:56:57;22.10;99.90
3156;DHT22;1588;50.892;7.082;2023-09-30T12:01:59;21.80;99.90
3156;DHT22;1588;50.892;7.082;2023-09-30T12:07:02;21.90;99.90
3156;DHT22;1588;50.892;7.082;2023-09-30T12:12:07;21.90;99.90
3156;DHT22;1588;50.892;7.082;2023-09-30T12:17:10;21.70;99.90
3156;DHT22;1588;50.892;7.082;2023-09-30T12:22:13;21.70;99.90
3156;DHT22;1588;50.892;7.082;2023-09-30T12:27:17;21.70;99.90
3156;DHT22;1588;50.892;7.082;2023-09-30T12:32:19;21.70;99.90
3156;DHT22;1588;50.892;7.082;2023-09-30T12:37:21;21.80;99.90
3156;DHT22;1588;50.892;7.082;2023-09-30T12:42:25;21.60;99.90
3156;DHT22;1588;50.892;7.082;2023-09-30T12:47:27;21.30;99.90
3156;DHT22;1588;50.892;7.082;2023-09-30T12:52:30;21.10;99.90
3156;DHT22;1588;50.892;7.082;2023-09-30T12:57:35;20.70;99.90
3156;DHT22;1588;50.892;7.082;2023-09-30T13:02:37;20.50;99.90
3156;DHT22;1588;50.892;7.082;2023-09-30T13:07:40;20.30;99.90
3156;DHT22;1588;50.892;7.082;2023-09-30T13:12:45;20.30;99.90
3156;DHT22;1588;50.892;7.082;2023-09-30T13:17:48;20.20;99.90
3156;DHT22;1588;50.892;7.082;2023-09-30T13:22:50;20.00;99.90
3156;DHT22;1588;50.892;7.082;2023-09-30T13:27:54;19.90;99.90
3156;DHT22;1588;50.892;7.082;2023-09-30T13:32:56;19.80;99.90
3156;DHT22;1588;50.892;7.082;2023-09-30T13:37:58;19.70;99.90
3156;DHT22;1588;50.892;7.082;2023-09-30T13:43:04;19.60;99.90
3156;DHT22;1588;50.892;7.082;2023-09-30T13:48:06;19.70;99.90
3156;DHT22;1588;50.892;7.082;2023-09-30T13:53:09;19.90;99.90
3156;DHT22;1588;50.892;7.082;2023-09-30T13:58:12;19.80;99.90
3156;DHT22;1588;50.892;7.082;2023-09-30T14:03:15;19.90;99.90
3156;DHT22;1588;50.892;7.082;2023-09-30T14:08:18;19.80;99.90
3156;DHT22;1588;50.892;7.082;2023-09-30T14:13:21;19.80;99.90
3156;DHT22;1588;50.892;7.082;2023-09-30T14:18:24;19.80;99.90
3156;DHT22;1588;50.892;7.082;2023-09-30T14:23:26;19.50;99.90
3156;DHT22;1588;50.892;7.082;2023-09-30T14:28:31;19.40;99.90
3156;DHT22;1588;50.892;7.082;2023-09-30T14:33:34;19.30;99.90
3156;DHT22;1588;50.892;7.082;2023-09-30T14:38:36;19.30;99.90
3156;DHT22;1588;50.892;7.082;2023-09-30T14:43:40;19.20;99.90
3156;DHT22;1588;50.892;7.082;2023-09-30T14:48:43;19.20;99.90
3156;DHT22;1588;50.892;7.082;2023-09-30T14:53:45;19.10;99.90
3156;DHT22;1588;50.892;7.082;2023-09-30T14:58:49;19.00;99.90
3156;DHT22;1588;50.892;7.082;2023-09-30T15:03:51;19.00;99.90
3156;DHT22;1588;50.892;7.082;2023-09-30T15:08:54;19.00;99.90
3156;DHT22;1588;50.892;7.082;2023-09-30T15:13:58;19.00;99.90
3156;DHT22;1588;50.892;7.082;2023-09-30T15:19:03;19.00;99.90
3156;DHT22;1588;50.892;7.082;2023-09-30T15:24:11;18.90;99.90
3156;DHT22;1588;50.892;7.082;2023-09-30T15:29:15;18.80;99.90
3156;DHT22;1588;50.892;7.082;2023-09-30T15:34:18;18.70;99.90
3156;DHT22;1588;50.892;7.082;2023-09-30T15:39:21;18.70;99.90
3156;DHT22;1588;50.892;7.082;2023-09-30T15:44:30;18.50;99.90
3156;DHT22;1588;50.892;7.082;2023-09-30T15:49:32;18.40;99.90
3156;DHT22;1588;50.892;7.082;2023-09-30T15:54:34;18.30;99.90
3156;DHT22;1588;50.892;7.082;2023-09-30T15:59:38;18.20;99.90
3156;DHT22;1588;50.892;7.082;2023-09-30T16:04:41;18.10;99.90
3156;DHT22;1588;50.892;7.082;2023-09-30T16:09:46;18.00;99.90
3156;DHT22;1588;50.892;7.082;2023-09-30T16:14:50;17.90;99.90
3156;DHT22;1588;50.892;7.082;2023-09-30T16:19:53;17.80;99.90
3156;DHT22;1588;50.892;7.082;2023-09-30T16:24:56;17.70;99.90
3156;DHT22;1588;50.892;7.082;2023-09-30T16:30:00;17.60;99.90
3156;DHT22;1588;50.892;7.082;2023-09-30T16:35:02;17.40;99.90
3156;DHT22;1588;50.892;7.082;2023-09-30T16:40:07;17.20;99.90
3156;DHT22;1588;50.892;7.082;2023-09-30T16:45:11;17.10;99.90
3156;DHT22;1588;50.892;7.082;2023-09-30T16:50:16;16.80;99.90
3156;DHT22;1588;50.892;7.082;2023-09-30T16:55:19;16.60;99.90
3156;DHT22;1588;50.892;7.082;2023-09-30T17:00:22;16.50;99.90
3156;DHT22;1588;50.892;7.082;2023-09-30T17:05:25;16.40;99.90
3156;DHT22;1588;50.892;7.082;2023-09-30T17:10:27;16.20;99.90
3156;DHT22;1588;50.892;7.082;2023-09-30T17:15:31;16.00;99.90
3156;DHT22;1588;50.892;7.082;2023-09-30T17:20:33;15.90;99.90
3156;DHT22;1588;50.892;7.082;2023-09-30T17:25:46;15.70;99.90
3156;DHT22;1588;50.892;7.082;2023-09-30T17:30:51;15.50;99.90
3156;DHT22;1588;50.892;7.082;2023-09-30T17:35:58;15.30;99.90
3156;DHT22;1588;50.892;7.082;2023-09-30T17:41:01;15.20;99.90
3156;DHT22;1588;50.892;7.082;2023-09-30T17:46:10;15.00;99.90
3156;DHT22;1588;50.892;7.082;2023-09-30T17:51:13;14.80;99.90
3156;DHT22;1588;50.892;7.082;2023-09-30T17:56:20;14.70;99.90
3156;DHT22;1588;50.892;7.082;2023-09-30T18:01:24;14.60;99.90
3156;DHT22;1588;50.892;7.082;2023-09-30T18:06:27;14.40;99.90
3156;DHT22;1588;50.892;7.082;2023-09-30T18:11:29;14.30;99.90
3156;DHT22;1588;50.892;7.082;2023-09-30T18:16:33;14.20;99.90
3156;DHT22;1588;50.892;7.082;2023-09-30T18:21:35;14.00;99.90
3156;DHT22;1588;50.892;7.082;2023-09-30T18:26:38;13.90;99.90
3156;DHT22;1588;50.892;7.082;2023-09-30T18:31:41;13.80;99.90
3156;DHT22;1588;50.892;7.082;2023-09-30T18:36:45;13.70;99.90
3156;DHT22;1588;50.892;7.082;2023-09-30T18:41:47;13.60;99.90
3156;DHT22;1588;50.892;7.082;2023-09-30T18:46:51;13.50;99.90
3156;DHT22;1588;50.892;7.082;2023-09-30T18:51:53;13.40;99.90
3156;DHT22;1588;50.892;7.082;2023-09-30T18:56:56;13.30;99.90
3156;DHT22;1588;50.892;7.082;2023-09-30T19:02:00;13.20;99.90
3156;DHT22;1588;50.892;7.082;2023-09-30T19:07:04;13.20;99.90
3156;DHT22;1588;50.892;7.082;2023-09-30T19:12:07;13.10;99.90
3156;DHT22;1588;50.892;7.082;2023-09-30T19:17:12;13.00;99.90
3156;DHT22;1588;50.892;7.082;2023-09-30T19:22:14;12.90;99.90
3156;DHT22;1588;50.892;7.082;2023-09-30T19:27:16;12.80;99.90
3156;DHT22;1588;50.892;7.082;2023-09-30T19:32:20;12.80;99.90
3156;DHT22;1588;50.892;7.082;2023-09-30T19:37:22;12.70;99.90
3156;DHT22;1588;50.892;7.082;2023-09-30T19:42:24;12.60;99.90
3156;DHT22;1588;50.892;7.082;2023-09-30T19:47:30;12.50;99.90
3156;DHT22;1588;50.892;7.082;2023-09-30T19:52:32;12.50;99.90
3156;DHT22;1588;50.892;7.082;2023-09-30T19:57:34;12.40;99.90
3156;DHT22;1588;50.892;7.082;2023-09-30T20:02:38;12.40;99.90
3156;DHT22;1588;50.892;7.082;2023-09-30T20:07:40;12.30;99.90
3156;DHT22;1588;50.892;7.082;2023-09-30T20:12:42;12.30;99.90
3156;DHT22;1588;50.892;7.082;2023-09-30T20:17:46;12.40;99.90
3156;DHT22;1588;50.892;7.082;2023-09-30T20:22:50;12.40;99.90
3156;DHT22;1588;50.892;7.082;2023-09-30T20:27:52;12.40;99.90
3156;DHT22;1588;50.892;7.082;2023-09-30T20:32:56;12.40;99.90
3156;DHT22;1588;50.892;7.082;2023-09-30T20:37:58;12.50;99.90
3156;DHT22;1588;50.892;7.082;2023-09-30T20:43:01;12.50;99.90
3156;DHT22;1588;50.892;7.082;2023-09-30T20:48:07;12.40;99.90
3156;DHT22;1588;50.892;7.082;2023-09-30T20:53:09;12.40;99.90
3156;DHT22;1588;50.892;7.082;2023-09-30T20:58:13;12.40;99.90
3156;DHT22;1588;50.892;7.082;2023-09-30T21:03:17;12.30;99.90
3156;DHT22;1588;50.892;7.082;2023-09-30T21:08:19;12.20;99.90
3156;DHT22;1588;50.892;7.082;2023-09-30T21:13:22;12.10;99.90
3156;DHT22;1588;50.892;7.082;2023-09-30T21:18:26;12.00;99.90
3156;DHT22;1588;50.892;7.082;2023-09-30T21:23:28;11.80;99.90
3156;DHT22;1588;50.892;7.082;2023-09-30T21:28:30;11.80;99.90
3156;DHT22;1588;50.892;7.082;2023-09-30T21:33:34;11.70;99.90
3156;DHT22;1588;50.892;7.082;2023-09-30T21:38:37;11.70;99.90
3156;DHT22;1588;50.892;7.082;2023-09-30T21:43:39;11.60;99.90
3156;DHT22;1588;50.892;7.082;2023-09-30T21:48:43;11.60;99.90
3156;DHT22;1588;50.892;7.082;2023-09-30T21:53:46;11.50;99.90
3156;DHT22;1588;50.892;7.082;2023-09-30T21:58:54;11.40;99.90
3156;DHT22;1588;50.892;7.082;2023-09-30T22:03:59;11.40;99.90
3156;DHT22;1588;50.892;7.082;2023-09-30T22:09:05;11.40;99.90
3156;DHT22;1588;50.892;7.082;2023-09-30T22:14:07;11.30;99.90
3156;DHT22;1588;50.892;7.082;2023-09-30T22:19:12;11.20;99.90
3156;DHT22;1588;50.892;7.082;2023-09-30T22:24:14;11.10;99.90
3156;DHT22;1588;50.892;7.082;2023-09-30T22:29:17;11.00;99.90
3156;DHT22;1588;50.892;7.082;2023-09-30T22:34:21;11.00;99.90
3156;DHT22;1588;50.892;7.082;2023-09-30T22:39:24;11.00;99.90
3156;DHT22;1588;50.892;7.082;2023-09-30T22:44:26;10.90;99.90
3156;DHT22;1588;50.892;7.082;2023-09-30T22:49:30;10.80;99.90
3156;DHT22;1588;50.892;7.082;2023-09-30T22:54:35;10.80;99.90
3156;DHT22;1588;50.892;7.082;2023-09-30T22:59:37;10.80;99.90
3156;DHT22;1588;50.892;7.082;2023-09-30T23:04:41;10.80;99.90
3156;DHT22;1588;50.892;7.082;2023-09-30T23:09:44;10.70;99.90
3156;DHT22;1588;50.892;7.082;2023-09-30T23:14:46;10.80;99.90
3156;DHT22;1588;50.892;7.082;2023-09-30T23:19:51;10.80;99.90
3156;DHT22;1588;50.892;7.082;2023-09-30T23:24:53;10.70;99.90
3156;DHT22;1588;50.892;7.082;2023-09-30T23:29:58;10.80;99.90
3156;DHT22;1588;50.892;7.082;2023-09-30T23:35:07;10.80;99.90
3156;DHT22;1588;50.892;7.082;2023-09-30T23:40:13;10.70;99.90
3156;DHT22;1588;50.892;7.082;2023-09-30T23:45:21;10.70;99.90
3156;DHT22;1588;50.892;7.082;2023-09-30T23:50:28;10.80;99.90
3156;DHT22;1588;50.892;7.082;2023-09-30T23:55:31;10.90;99.90
